Time;durP1;ratioP1;P1;durP2;ratioP2;P2;SDS_P1;SDS_P2;PMS_P1;PMS_P2;Temp;Humidity;BMP_temperature;BMP_pressure;BME280_temperature;BME280_humidity;BME280_pressure;Samples;Min_cycle;Max_cycle;Signal;HPM_P1;HPM_P2
2022/07/24 00:01:30;;;;;;;21.70;18.70;;;;;;;22.66;58.87;100504.63;4908179;28;97746;-80
2022/07/24 00:03:55;;;;;;;19.48;17.63;;;;;;;22.60;58.86;100501.50;4913098;28;98692;-76
2022/07/24 00:06:21;;;;;;;19.15;17.25;;;;;;;22.65;59.15;100503.78;4898511;28;96787;-75
2022/07/24 00:08:46;;;;;;;17.95;16.23;;;;;;;22.65;59.17;100508.28;4913623;28;97050;-76
2022/07/24 00:11:12;;;;;;;16.20;14.65;;;;;;;22.69;59.18;100513.28;4901204;28;101922;-76
2022/07/24 00:13:38;;;;;;;16.85;15.27;;;;;;;22.58;59.19;100492.75;4893792;28;97717;-76
2022/07/24 00:16:04;;;;;;;18.75;17.05;;;;;;;22.70;59.08;100512.28;4899096;28;96923;-75
2022/07/24 00:18:29;;;;;;;17.23;15.70;;;;;;;22.60;59.23;100512.22;4891508;28;97313;-77
2022/07/24 00:20:55;;;;;;;17.70;15.98;;;;;;;22.60;59.46;100511.34;4896259;28;101146;-76
2022/07/24 00:23:22;;;;;;;16.50;15.07;;;;;;;22.64;59.23;100512.81;4906417;28;97539;-75
2022/07/24 00:25:48;;;;;;;17.55;16.05;;;;;;;22.68;59.08;100521.41;4881448;28;97007;-76
2022/07/24 00:28:14;;;;;;;16.95;15.52;;;;;;;22.64;58.93;100507.44;4914708;28;98155;-76
2022/07/24 00:30:39;;;;;;;17.45;16.08;;;;;;;22.65;58.87;100508.28;4897836;28;97567;-76
2022/07/24 00:33:05;;;;;;;16.10;14.80;;;;;;;22.52;59.42;100519.16;4894430;28;98015;-76
2022/07/24 00:35:31;;;;;;;16.48;15.05;;;;;;;22.46;59.19;100507.13;4896055;28;97106;-76
2022/07/24 00:37:56;;;;;;;15.93;14.40;;;;;;;22.56;58.64;100513.41;4896943;28;97196;-76
2022/07/24 00:40:22;;;;;;;15.98;14.57;;;;;;;22.54;58.92;100514.50;4894577;28;100448;-75
2022/07/24 00:42:47;;;;;;;15.50;14.15;;;;;;;22.43;59.06;100495.81;4877682;28;101340;-76
2022/07/24 00:45:13;;;;;;;16.10;14.82;;;;;;;22.45;59.13;100513.44;4894827;28;97224;-75
2022/07/24 00:47:38;;;;;;;16.30;14.95;;;;;;;22.56;58.70;100509.91;4897241;28;96990;-76
2022/07/24 00:50:05;;;;;;;15.27;14.05;;;;;;;22.35;59.11;100510.66;4898717;28;101894;-76
2022/07/24 00:52:31;;;;;;;16.02;14.65;;;;;;;22.25;59.34;100503.50;4872204;28;100663;-76
2022/07/24 00:54:57;;;;;;;16.50;14.93;;;;;;;22.19;59.32;100510.16;4897200;28;97309;-76
2022/07/24 00:57:22;;;;;;;16.13;14.50;;;;;;;22.27;59.24;100512.25;4897963;28;97333;-76
2022/07/24 00:59:48;;;;;;;15.23;14.13;;;;;;;22.25;58.71;100493.66;4896515;28;97934;-76
2022/07/24 01:02:13;;;;;;;15.50;14.40;;;;;;;22.23;59.00;100505.44;4910435;28;101172;-77
2022/07/24 01:04:39;;;;;;;14.98;13.88;;;;;;;22.24;58.81;100508.00;4881765;28;97048;-75
2022/07/24 01:07:05;;;;;;;15.88;14.68;;;;;;;22.27;58.48;100505.06;4907602;28;97382;-78
2022/07/24 01:09:31;;;;;;;14.32;13.32;;;;;;;22.20;58.79;100519.91;4907320;28;101669;-76
2022/07/24 01:11:57;;;;;;;15.50;14.27;;;;;;;22.15;59.00;100506.88;4896492;28;101323;-76
2022/07/24 01:14:22;;;;;;;15.77;14.50;;;;;;;22.17;58.71;100506.78;4867939;28;96941;-77
2022/07/24 01:16:48;;;;;;;15.68;14.48;;;;;;;22.02;59.07;100513.31;4876891;28;97372;-76
2022/07/24 01:19:13;;;;;;;15.55;14.25;;;;;;;21.92;59.29;100505.16;4887675;28;101363;-76
2022/07/24 01:21:45;;;;;;;14.57;13.50;;;;;;;21.91;59.13;100484.78;4913290;28;97834;-76
2022/07/24 01:24:10;;;;;;;14.10;13.10;;;;;;;21.91;59.11;100495.47;4892618;28;96714;-76
2022/07/24 01:26:36;;;;;;;15.75;14.15;;;;;;;22.05;58.81;100502.38;4879069;28;97082;-76
2022/07/24 01:29:01;;;;;;;16.08;14.55;;;;;;;21.99;59.18;100501.06;4912212;28;97420;-75
2022/07/24 01:31:27;;;;;;;15.43;14.15;;;;;;;22.06;58.71;100504.09;4896887;28;100731;-76
2022/07/24 01:33:52;;;;;;;15.32;13.90;;;;;;;22.02;58.79;100494.59;4879299;28;97015;-76
2022/07/24 01:36:18;;;;;;;16.25;14.75;;;;;;;22.04;59.02;100503.34;4897310;28;97065;-76
2022/07/24 01:38:43;;;;;;;15.65;14.45;;;;;;;21.92;58.88;100489.97;4896090;28;101761;-73
2022/07/24 01:41:09;;;;;;;15.63;14.00;;;;;;;21.96;59.08;100505.78;4897226;28;97462;-76
2022/07/24 01:43:34;;;;;;;16.15;14.95;;;;;;;21.96;58.87;100505.78;4909879;28;97340;-75
2022/07/24 01:45:59;;;;;;;15.50;14.30;;;;;;;21.85;58.94;100504.81;4896206;28;96919;-77
2022/07/24 01:48:25;;;;;;;14.95;13.77;;;;;;;21.87;59.04;100502.00;4880145;28;101527;-77
2022/07/24 01:50:50;;;;;;;15.18;14.07;;;;;;;21.84;58.81;100503.09;4896666;28;97965;-77
2022/07/24 01:53:16;;;;;;;16.90;15.25;;;;;;;21.89;58.86;100508.09;4896655;28;96889;-75
2022/07/24 01:55:41;;;;;;;16.42;15.18;;;;;;;21.82;59.10;100501.53;4913365;28;96915;-76
2022/07/24 01:58:07;;;;;;;15.93;14.60;;;;;;;21.89;58.92;100508.09;4880098;28;101497;-75
2022/07/24 02:00:32;;;;;;;14.48;13.38;;;;;;;21.79;58.88;100488.41;4911236;28;100697;-80
2022/07/24 02:02:58;;;;;;;15.82;14.30;;;;;;;21.85;58.99;100498.63;4898439;28;97371;-75
2022/07/24 02:05:23;;;;;;;16.63;15.13;;;;;;;21.80;59.09;100487.44;4897596;28;97267;-75
2022/07/24 02:07:56;;;;;;;15.88;14.38;;;;;;;21.72;58.97;100497.88;4878871;28;101335;-81
2022/07/24 02:10:23;;;;;;;15.93;14.73;;;;;;;21.65;59.12;100494.81;4909162;28;97969;-74
2022/07/24 02:12:48;;;;;;;15.98;14.55;;;;;;;21.64;59.13;100493.97;4896169;28;97071;-73
2022/07/24 02:15:14;;;;;;;17.02;15.52;;;;;;;21.57;59.57;100508.75;4896825;28;96921;-76
2022/07/24 02:17:45;;;;;;;16.55;15.02;;;;;;;21.53;59.28;100507.31;4894391;28;97774;-76
2022/07/24 02:20:11;;;;;;;16.52;15.15;;;;;;;21.43;59.49;100490.28;4901726;28;101464;-76
2022/07/24 02:22:36;;;;;;;16.35;15.05;;;;;;;21.52;59.64;100507.41;4916125;28;96769;-76
2022/07/24 02:25:02;;;;;;;17.08;15.45;;;;;;;21.46;59.82;100506.06;4897417;28;97003;-76
2022/07/24 02:27:28;;;;;;;16.40;15.00;;;;;;;21.53;59.52;100501.97;4883830;28;101292;-75
2022/07/24 02:29:53;;;;;;;16.33;14.93;;;;;;;21.45;59.63;100505.22;4905927;28;100932;-82
2022/07/24 02:32:18;;;;;;;16.73;15.35;;;;;;;21.44;59.66;100497.34;4899634;28;96834;-76
2022/07/24 02:34:44;;;;;;;15.80;14.50;;;;;;;21.55;59.25;100513.34;4914493;28;97043;-75
2022/07/24 02:37:09;;;;;;;16.95;15.50;;;;;;;21.39;59.46;100508.34;4898258;28;98004;-76
2022/07/24 02:39:35;;;;;;;17.35;15.68;;;;;;;21.39;59.56;100505.69;4915225;28;97321;-75
2022/07/24 02:42:00;;;;;;;15.75;14.55;;;;;;;21.42;59.36;100508.13;4908696;28;97036;-76
2022/07/24 02:44:26;;;;;;;15.95;14.65;;;;;;;21.25;59.78;100506.69;4899312;28;96946;-78
2022/07/24 02:46:51;;;;;;;16.13;15.02;;;;;;;21.24;59.56;100494.34;4912119;28;101246;-75
2022/07/24 02:49:17;;;;;;;17.20;15.60;;;;;;;21.37;59.39;100517.44;4899208;28;101728;-77
2022/07/24 02:51:42;;;;;;;17.10;15.88;;;;;;;21.31;59.51;100518.72;4898635;28;97333;-77
2022/07/24 02:54:08;;;;;;;17.25;15.77;;;;;;;21.25;59.57;100514.72;4914261;28;97118;-75
2022/07/24 02:56:33;;;;;;;17.13;15.50;;;;;;;21.29;59.49;100523.31;4899089;28;110875;-76
2022/07/24 02:58:59;;;;;;;16.90;15.20;;;;;;;21.24;59.45;100517.50;4914255;28;97641;-73
2022/07/24 03:01:24;;;;;;;14.98;13.90;;;;;;;21.16;59.78;100526.09;4883371;28;97179;-73
2022/07/24 03:03:50;;;;;;;16.15;14.65;;;;;;;21.15;59.67;100524.38;4915689;28;96877;-75
2022/07/24 03:06:15;;;;;;;14.70;13.43;;;;;;;21.04;59.34;100508.31;4898871;28;101482;-75
2022/07/24 03:08:41;;;;;;;14.88;13.70;;;;;;;21.13;59.68;100531.66;4897406;28;101696;-73
2022/07/24 03:11:06;;;;;;;16.75;15.18;;;;;;;21.03;59.61;100538.63;4884864;28;97283;-76
2022/07/24 03:13:32;;;;;;;15.48;14.10;;;;;;;21.08;59.19;100544.47;4909785;28;96817;-76
2022/07/24 03:15:57;;;;;;;16.88;15.20;;;;;;;21.07;59.44;100539.28;4882344;28;101455;-79
2022/07/24 03:18:23;;;;;;;14.90;13.38;;;;;;;21.10;59.28;100539.88;4898943;28;101729;-74
2022/07/24 03:20:48;;;;;;;15.00;13.80;;;;;;;21.08;59.32;100539.13;4899718;28;96793;-75
2022/07/24 03:23:14;;;;;;;15.68;14.25;;;;;;;21.14;58.89;100548.50;4898104;28;97138;-76
2022/07/24 03:25:40;;;;;;;16.58;14.07;;;;;;;20.96;59.21;100530.22;4897467;28;101508;-75
2022/07/24 03:28:05;;;;;;;14.90;13.75;;;;;;;21.06;59.26;100549.09;4907853;28;101253;-73
2022/07/24 03:30:31;;;;;;;14.95;13.60;;;;;;;21.07;59.16;100545.47;4898587;28;97202;-76
2022/07/24 03:32:56;;;;;;;15.65;14.38;;;;;;;20.98;58.69;100538.97;4895670;28;97996;-81
2022/07/24 03:35:22;;;;;;;15.55;14.15;;;;;;;21.03;59.16;100562.63;4915550;28;97886;-75
2022/07/24 03:37:47;;;;;;;15.70;14.50;;;;;;;21.03;58.89;100563.53;4926056;28;97382;-76
2022/07/24 03:40:13;;;;;;;15.63;14.23;;;;;;;20.91;58.90;100550.22;4897777;28;96981;-75
2022/07/24 03:42:38;;;;;;;14.60;13.50;;;;;;;21.06;58.72;100562.44;4891921;28;97475;-76
2022/07/24 03:45:05;;;;;;;16.13;14.60;;;;;;;20.95;58.77;100565.91;4895652;28;101148;-76
2022/07/24 03:47:30;;;;;;;14.88;13.27;;;;;;;20.85;58.86;100569.34;4882307;28;100601;-76
2022/07/24 03:49:56;;;;;;;15.27;14.07;;;;;;;21.14;58.24;100567.19;4882110;28;97096;-75
2022/07/24 03:52:21;;;;;;;14.02;12.85;;;;;;;21.00;58.58;100571.75;4898163;28;97767;-73
2022/07/24 03:54:46;;;;;;;15.40;14.23;;;;;;;20.98;58.56;100563.00;4882217;28;101099;-78
2022/07/24 03:57:12;;;;;;;14.65;13.45;;;;;;;21.11;58.36;100568.28;4897892;28;98045;-76
2022/07/24 03:59:37;;;;;;;15.63;14.18;;;;;;;21.25;57.93;100577.94;4889935;28;96978;-76
2022/07/24 04:02:03;;;;;;;14.43;13.02;;;;;;;21.00;58.17;100557.53;4884082;28;96772;-75
2022/07/24 04:04:28;;;;;;;15.85;14.05;;;;;;;20.94;58.43;100558.00;4898003;28;97945;-76
2022/07/24 04:06:54;;;;;;;14.18;12.98;;;;;;;21.14;57.98;100575.19;4899134;28;97457;-75
2022/07/24 04:09:20;;;;;;;14.63;13.32;;;;;;;21.15;58.03;100572.44;4913703;28;97057;-75
2022/07/24 04:11:46;;;;;;;15.00;13.60;;;;;;;21.10;58.41;100574.59;4899073;28;97090;-76
2022/07/24 04:14:12;;;;;;;16.48;14.90;;;;;;;21.03;58.37;100570.66;4900099;28;98065;-75
2022/07/24 04:16:37;;;;;;;14.55;13.43;;;;;;;21.14;58.09;100578.72;4906902;28;101494;-76
2022/07/24 04:19:03;;;;;;;14.35;13.13;;;;;;;21.11;58.09;100572.75;4881361;28;96742;-80
2022/07/24 04:21:28;;;;;;;14.82;13.48;;;;;;;21.14;58.02;100577.88;4897955;28;96825;-74
2022/07/24 04:23:54;;;;;;;15.65;14.23;;;;;;;21.30;57.99;100577.59;4897435;28;101024;-76
2022/07/24 04:26:19;;;;;;;15.02;13.82;;;;;;;21.29;57.62;100574.06;4906881;28;101247;-76
2022/07/24 04:28:45;;;;;;;15.52;14.20;;;;;;;21.37;57.05;100585.03;4895109;28;97310;-75
2022/07/24 04:31:10;;;;;;;15.52;14.13;;;;;;;21.44;57.13;100572.94;4890699;28;97020;-76
2022/07/24 04:33:36;;;;;;;14.65;13.38;;;;;;;21.46;57.12;100575.50;4896703;28;98133;-76
2022/07/24 04:36:03;;;;;;;14.82;13.60;;;;;;;21.31;57.23;100579.28;4881320;28;100774;-80
2022/07/24 04:38:29;;;;;;;15.65;14.25;;;;;;;21.42;57.19;100582.03;4896959;28;96949;-75
2022/07/24 04:40:54;;;;;;;14.00;12.93;;;;;;;21.46;57.29;100578.16;4891094;28;96950;-76
2022/07/24 04:43:20;;;;;;;15.00;13.75;;;;;;;21.41;57.26;100585.66;4901509;28;97669;-76
2022/07/24 04:45:45;;;;;;;15.32;14.20;;;;;;;21.51;56.99;100580.50;4895034;28;97871;-73
2022/07/24 04:48:11;;;;;;;14.93;13.60;;;;;;;21.63;56.70;100584.91;4890547;28;96744;-76
2022/07/24 04:50:36;;;;;;;15.07;13.85;;;;;;;21.72;56.37;100594.03;4880466;28;97038;-76
2022/07/24 04:53:02;;;;;;;15.35;14.00;;;;;;;21.75;56.09;100577.78;4913403;28;97700;-76
2022/07/24 04:55:27;;;;;;;15.13;13.82;;;;;;;22.04;55.72;100607.59;4907283;28;101468;-76
2022/07/24 04:57:53;;;;;;;14.70;13.40;;;;;;;22.22;55.20;100600.81;4887898;28;97073;-76
2022/07/24 05:00:18;;;;;;;13.95;12.95;;;;;;;22.24;55.26;100600.72;4895671;28;97362;-76
2022/07/24 05:02:44;;;;;;;13.43;12.32;;;;;;;22.29;55.10;100607.41;4896612;28;101584;-76
2022/07/24 05:05:09;;;;;;;14.90;13.70;;;;;;;22.31;55.03;100594.78;4904075;28;98059;-76
2022/07/24 05:07:35;;;;;;;14.13;12.93;;;;;;;22.52;54.49;100620.78;4901427;28;96893;-76
2022/07/24 05:10:00;;;;;;;14.18;12.70;;;;;;;22.58;54.29;100606.94;4897866;28;96985;-76
2022/07/24 05:12:26;;;;;;;14.30;13.07;;;;;;;22.82;54.25;100612.13;4912607;28;97773;-77
2022/07/24 05:14:52;;;;;;;14.15;12.93;;;;;;;22.92;54.03;100628.28;4893960;28;101279;-76
2022/07/24 05:17:17;;;;;;;14.15;12.98;;;;;;;22.96;53.96;100627.94;4881120;28;97111;-77
2022/07/24 05:19:43;;;;;;;13.35;12.32;;;;;;;23.00;52.96;100624.03;4909931;28;97503;-76
2022/07/24 05:22:08;;;;;;;13.73;12.43;;;;;;;23.17;52.78;100628.03;4878348;28;101370;-80
2022/07/24 05:24:34;;;;;;;13.45;12.35;;;;;;;23.33;52.45;100629.44;4925581;28;97433;-80
2022/07/24 05:26:59;;;;;;;12.60;11.70;;;;;;;23.32;52.49;100623.22;4913946;28;96647;-77
2022/07/24 05:29:25;;;;;;;15.13;13.82;;;;;;;23.34;52.23;100604.38;4903580;28;96932;-79
2022/07/24 05:31:51;;;;;;;13.15;12.13;;;;;;;23.57;51.89;100639.94;4897035;28;97454;-79
2022/07/24 05:34:17;;;;;;;13.25;12.13;;;;;;;23.61;51.93;100639.56;4900708;28;97884;-79
2022/07/24 05:36:42;;;;;;;13.13;12.23;;;;;;;23.71;51.54;100631.63;4889865;28;96921;-80
2022/07/24 05:39:08;;;;;;;13.05;12.00;;;;;;;23.83;51.37;100641.31;4902378;28;97097;-84
2022/07/24 05:41:33;;;;;;;13.25;12.25;;;;;;;23.94;51.33;100638.56;4897332;28;102059;-80
2022/07/24 05:43:59;;;;;;;13.13;12.02;;;;;;;23.87;51.05;100636.53;4913930;28;98220;-79
2022/07/24 05:46:24;;;;;;;13.05;12.02;;;;;;;23.87;50.93;100625.81;4897574;28;97183;-79
2022/07/24 05:48:49;;;;;;;13.05;12.15;;;;;;;24.15;50.87;100630.53;4897296;28;97341;-80
2022/07/24 05:51:15;;;;;;;12.90;11.93;;;;;;;24.25;50.87;100630.56;4912522;28;101593;-80
2022/07/24 05:53:40;;;;;;;12.50;11.30;;;;;;;24.40;50.31;100633.75;4908714;28;101189;-80
2022/07/24 05:56:06;;;;;;;12.57;11.55;;;;;;;24.56;49.67;100631.47;4879506;28;97449;-80
2022/07/24 05:58:32;;;;;;;12.63;11.30;;;;;;;24.91;49.21;100632.00;4880736;28;97843;-80
2022/07/24 06:00:57;;;;;;;12.75;11.65;;;;;;;25.32;48.01;100632.81;4897393;28;101598;-80
2022/07/24 06:03:23;;;;;;;11.90;11.10;;;;;;;25.78;46.61;100634.81;4896840;28;101044;-79
2022/07/24 06:05:48;;;;;;;11.98;11.10;;;;;;;26.17;45.71;100627.53;4897771;28;96744;-79
2022/07/24 06:08:14;;;;;;;11.73;10.93;;;;;;;26.60;44.53;100617.22;4881573;28;97205;-80
2022/07/24 06:10:39;;;;;;;11.57;10.50;;;;;;;27.09;44.10;100633.97;4897126;28;101552;-80
2022/07/24 06:13:05;;;;;;;11.98;10.98;;;;;;;27.54;42.65;100620.44;4880719;28;101353;-79
2022/07/24 06:15:30;;;;;;;11.75;10.95;;;;;;;27.95;41.94;100634.28;4896696;28;96781;-81
2022/07/24 06:17:56;;;;;;;11.40;10.60;;;;;;;28.41;41.15;100632.25;4913496;28;97254;-80
2022/07/24 06:20:21;;;;;;;11.52;10.48;;;;;;;28.70;40.59;100636.44;4880854;28;101097;-81
2022/07/24 06:22:47;;;;;;;12.90;11.15;;;;;;;29.00;39.98;100626.09;4896828;28;101200;-81
2022/07/24 06:25:14;;;;;;;11.60;10.70;;;;;;;29.21;39.35;100623.81;4913948;28;96695;-83
2022/07/24 06:27:47;;;;;;;11.93;11.00;;;;;;;29.19;38.69;100638.50;4902783;28;97248;-80
2022/07/24 06:30:19;;;;;;;10.95;10.25;;;;;;;29.44;38.45;100626.72;4896367;28;98080;-87
2022/07/24 06:32:45;;;;;;;10.45;9.65;;;;;;;29.58;38.27;100644.13;4897197;28;101362;-80
2022/07/24 06:35:11;;;;;;;10.88;10.20;;;;;;;29.68;37.67;100634.03;4896394;28;98683;-81
2022/07/24 06:37:36;;;;;;;11.95;10.98;;;;;;;30.04;37.38;100644.47;4896881;28;96985;-81
2022/07/24 06:40:04;;;;;;;10.90;10.05;;;;;;;30.54;36.62;100648.78;4879105;28;101870;-79
2022/07/24 06:42:29;;;;;;;10.95;10.25;;;;;;;30.72;36.37;100645.88;4880567;28;101649;-80
2022/07/24 06:44:54;;;;;;;10.73;9.98;;;;;;;30.90;36.11;100635.66;4893712;28;97082;-80
2022/07/24 06:47:20;;;;;;;10.70;10.00;;;;;;;31.00;35.97;100631.88;4896963;28;96977;-80
2022/07/24 06:49:45;;;;;;;10.75;9.98;;;;;;;30.80;35.76;100620.63;4877597;28;101286;-80
2022/07/24 06:52:11;;;;;;;10.95;10.15;;;;;;;31.01;35.44;100639.84;4895976;28;97786;-81
2022/07/24 06:54:37;;;;;;;11.10;10.32;;;;;;;31.40;35.14;100638.09;4896593;28;96899;-80
2022/07/24 06:57:02;;;;;;;11.13;10.20;;;;;;;31.57;34.60;100634.25;4897475;28;97205;-80
2022/07/24 06:59:28;;;;;;;10.18;9.40;;;;;;;31.99;33.69;100638.31;4897329;28;97498;-80
2022/07/24 07:01:53;;;;;;;11.02;9.98;;;;;;;32.07;33.61;100631.97;4912028;28;97430;-84
2022/07/24 07:04:19;;;;;;;10.13;9.40;;;;;;;32.00;33.13;100630.00;4893441;28;96802;-81
2022/07/24 07:06:44;;;;;;;11.15;10.25;;;;;;;32.19;33.09;100628.59;4898305;28;96840;-80
2022/07/24 07:09:10;;;;;;;10.90;10.10;;;;;;;32.44;32.55;100626.47;4883566;28;101521;-80
2022/07/24 07:11:36;;;;;;;10.38;9.50;;;;;;;32.50;31.92;100621.34;4915554;28;101133;-80
2022/07/24 07:14:02;;;;;;;10.10;9.43;;;;;;;32.43;31.76;100630.19;4883798;28;96815;-80
2022/07/24 07:16:27;;;;;;;10.52;9.73;;;;;;;32.43;31.52;100618.50;4897159;28;96980;-81
2022/07/24 07:18:53;;;;;;;11.02;10.32;;;;;;;32.85;31.98;100630.59;4882906;28;100815;-80
2022/07/24 07:21:18;;;;;;;10.82;10.02;;;;;;;33.39;30.70;100632.03;4899677;28;101397;-84
2022/07/24 07:23:44;;;;;;;10.27;9.68;;;;;;;33.31;29.61;100635.75;4884046;28;96935;-80
2022/07/24 07:26:09;;;;;;;10.90;9.98;;;;;;;33.39;29.35;100626.59;4884225;28;97165;-80
2022/07/24 07:28:35;;;;;;;9.93;9.32;;;;;;;33.55;28.89;100621.78;4880992;28;101231;-81
2022/07/24 07:31:00;;;;;;;10.10;9.18;;;;;;;33.49;28.60;100632.56;4915059;28;101450;-80
2022/07/24 07:33:26;;;;;;;9.60;9.10;;;;;;;33.48;27.94;100631.72;4880938;28;96809;-81
2022/07/24 07:35:52;;;;;;;10.30;9.70;;;;;;;33.54;27.39;100625.53;4913411;28;97372;-82
2022/07/24 07:38:18;;;;;;;10.27;9.48;;;;;;;33.75;27.35;100623.84;4910798;28;97671;-87
2022/07/24 07:40:43;;;;;;;9.35;8.85;;;;;;;34.14;26.77;100633.38;4881405;28;101413;-82
2022/07/24 07:43:09;;;;;;;9.95;9.25;;;;;;;33.93;26.43;100609.72;4877613;28;97049;-81
2022/07/24 07:45:35;;;;;;;10.65;10.00;;;;;;;33.93;26.54;100629.63;4915078;28;97279;-81
2022/07/24 07:48:00;;;;;;;11.15;10.48;;;;;;;33.93;26.61;100607.84;4896323;28;98508;-80
2022/07/24 07:50:26;;;;;;;11.13;10.13;;;;;;;34.32;26.79;100630.97;4882108;28;101018;-81
2022/07/24 07:52:51;;;;;;;10.43;9.82;;;;;;;34.32;26.28;100625.50;4882246;28;96867;-80
2022/07/24 07:55:16;;;;;;;10.40;9.80;;;;;;;34.28;26.50;100639.75;4893352;28;97102;-81
2022/07/24 07:57:43;;;;;;;10.35;9.60;;;;;;;34.44;25.82;100637.53;4895280;28;101565;-82
2022/07/24 08:00:10;;;;;;;10.80;10.20;;;;;;;34.49;25.83;100626.88;4896076;28;101194;-81
2022/07/24 08:02:37;;;;;;;11.10;10.40;;;;;;;34.84;26.04;100631.47;4892209;28;96691;-80
2022/07/24 08:05:03;;;;;;;10.15;9.55;;;;;;;35.06;25.58;100626.75;4882807;28;96939;-82
2022/07/24 08:07:29;;;;;;;10.75;10.05;;;;;;;35.24;25.04;100629.72;4897984;28;102141;-80
2022/07/24 08:09:54;;;;;;;10.30;9.70;;;;;;;35.53;25.08;100622.22;4898387;28;97999;-81
2022/07/24 08:12:20;;;;;;;10.50;9.80;;;;;;;35.60;24.69;100625.81;4915839;28;96839;-85
2022/07/24 08:14:45;;;;;;;11.27;10.52;;;;;;;35.82;24.71;100631.91;4898301;28;96869;-81
2022/07/24 08:17:11;;;;;;;11.02;10.35;;;;;;;36.03;24.15;100617.19;4897763;28;101343;-80
2022/07/24 08:19:37;;;;;;;10.93;10.23;;;;;;;36.41;23.83;100617.34;4913750;28;101798;-82
2022/07/24 08:22:04;;;;;;;10.48;9.98;;;;;;;36.59;24.04;100622.16;4881656;28;96767;-82
2022/07/24 08:24:32;;;;;;;11.35;10.70;;;;;;;36.65;23.63;100621.31;4897053;28;97559;-81
2022/07/24 08:26:57;;;;;;;11.00;10.30;;;;;;;36.94;23.28;100625.38;4897799;28;101418;-81
2022/07/24 08:29:23;;;;;;;11.75;10.95;;;;;;;37.26;22.67;100625.41;4914300;28;97383;-81
2022/07/24 08:31:48;;;;;;;11.32;10.65;;;;;;;37.47;22.92;100615.16;4881624;28;97221;-80
2022/07/24 08:34:14;;;;;;;11.05;10.32;;;;;;;37.91;22.12;100614.19;4906533;28;97805;-81
2022/07/24 08:36:39;;;;;;;11.07;10.38;;;;;;;38.00;22.48;100617.53;4918427;28;97423;-81
2022/07/24 08:39:05;;;;;;;11.02;10.38;;;;;;;38.15;22.19;100618.00;4897331;28;101191;-81
2022/07/24 08:41:35;;;;;;;12.05;11.25;;;;;;;38.65;21.90;100615.13;4897197;28;97559;-82
2022/07/24 08:44:03;;;;;;;11.63;10.85;;;;;;;38.47;21.26;100618.72;4894972;28;97422;-82
2022/07/24 08:46:28;;;;;;;11.20;10.50;;;;;;;38.39;21.35;100605.28;4867366;28;101268;-82
2022/07/24 08:48:54;;;;;;;11.52;10.85;;;;;;;39.13;20.61;100603.31;4902662;28;101293;-82
2022/07/24 08:51:21;;;;;;;10.98;10.30;;;;;;;39.11;20.76;100610.94;4897593;28;96737;-82
2022/07/24 08:53:47;;;;;;;11.27;10.68;;;;;;;38.16;20.91;100605.13;4894848;28;96854;-85
2022/07/24 08:56:13;;;;;;;10.90;10.30;;;;;;;36.35;22.97;100606.44;4895425;28;99924;-86
2022/07/24 08:58:40;;;;;;;10.90;10.23;;;;;;;35.21;24.35;100607.47;4893126;28;99914;-83
2022/07/24 09:01:07;;;;;;;10.90;10.15;;;;;;;35.87;23.42;100610.28;4893594;28;96890;-85
2022/07/24 09:03:44;;;;;;;10.50;9.63;;;;;;;37.00;22.81;100612.72;4890827;28;96959;-86
2022/07/24 09:06:11;;;;;;;11.00;10.02;;;;;;;37.86;22.20;100602.25;4893860;28;101662;-88
2022/07/24 09:08:41;;;;;;;11.80;10.90;;;;;;;37.67;21.94;100610.38;4880805;28;101704;-86
2022/07/24 09:11:09;;;;;;;9.50;8.85;;;;;;;38.05;21.97;100617.66;4881896;28;97146;-86
2022/07/24 09:14:36;;;;;;;8.43;7.82;;;;;;;37.78;22.13;100620.63;4867382;28;96934;-86
2022/07/24 09:16:33;;;;;;;8.13;7.70;;;;;;;37.50;21.88;100618.34;4883424;28;100949;-87
2022/07/24 09:19:05;;;;;;;8.88;8.38;;;;;;;37.09;21.86;100607.84;4912011;28;98215;-87
2022/07/24 09:21:38;;;;;;;9.65;8.98;;;;;;;36.41;22.41;100608.31;4903743;28;97132;-87
2022/07/24 09:24:13;;;;;;;9.13;8.63;;;;;;;36.10;23.05;100612.59;4881360;28;96962;-87
2022/07/24 09:26:50;;;;;;;9.75;9.18;;;;;;;35.38;24.42;100620.53;4895998;28;101305;-86
2022/07/24 09:29:17;;;;;;;8.30;7.80;;;;;;;35.36;24.21;100611.69;4881045;28;101365;-86
2022/07/24 09:32:09;;;;;;;8.60;8.10;;;;;;;34.91;24.20;100608.63;4879704;28;97300;-85
2022/07/24 09:34:40;;;;;;;1.30;1.00;;;;;;;34.73;24.57;100608.34;4909914;28;97068;-86
2022/07/24 09:37:09;;;;;;;3.75;1.20;;;;;;;34.15;25.18;100611.38;4897178;28;98555;-88
2022/07/24 09:39:40;;;;;;;8.00;7.60;;;;;;;34.24;25.24;100614.78;4881146;28;100893;-85
2022/07/24 09:42:18;;;;;;;7.75;7.25;;;;;;;34.05;24.75;100612.78;4897788;28;97373;-87
2022/07/24 09:44:58;;;;;;;8.07;7.53;;;;;;;33.84;24.66;100616.38;4876003;28;97270;-84
2022/07/24 09:47:48;;;;;;;8.48;7.93;;;;;;;33.69;25.02;100627.34;4878928;28;102115;-85
2022/07/24 09:50:16;;;;;;;8.20;7.60;;;;;;;33.48;25.62;100607.25;4900743;28;101966;-89
2022/07/24 09:52:52;;;;;;;7.55;7.05;;;;;;;33.53;25.26;100609.38;4882082;28;97392;-84
2022/07/24 09:55:23;;;;;;;8.07;7.22;;;;;;;33.15;26.38;100612.34;4913572;28;96778;-84
2022/07/24 09:57:49;;;;;;;11.68;8.70;;;;;;;32.81;26.19;100619.22;4891644;28;101706;-83
2022/07/24 10:00:15;;;;;;;8.68;8.00;;;;;;;32.52;26.31;100625.53;4889552;28;101189;-84
2022/07/24 10:02:43;;;;;;;9.77;8.60;;;;;;;32.18;26.40;100628.81;4896714;28;96921;-85
2022/07/24 10:05:10;;;;;;;7.15;6.75;;;;;;;31.92;26.97;100618.38;4879851;28;97099;-83
2022/07/24 10:07:37;;;;;;;7.85;7.05;;;;;;;32.00;26.98;100619.13;4909255;28;97503;-84
2022/07/24 10:10:03;;;;;;;7.88;7.38;;;;;;;31.73;27.26;100614.25;4892100;28;101533;-82
2022/07/24 10:12:30;;;;;;;8.07;7.55;;;;;;;30.85;28.00;100621.78;4889864;28;96803;-89
2022/07/24 10:14:57;;;;;;;7.38;6.88;;;;;;;29.76;28.79;100615.09;4909526;28;98025;-84
2022/07/24 10:17:34;;;;;;;8.02;7.45;;;;;;;29.20;29.43;100615.88;4904246;28;98186;-84
2022/07/24 10:20:03;;;;;;;8.00;7.50;;;;;;;29.29;29.61;100612.16;4893958;28;100483;-85
2022/07/24 10:22:39;;;;;;;8.23;7.63;;;;;;;29.42;30.01;100620.63;4873735;28;97575;-85
2022/07/24 10:25:09;;;;;;;8.35;7.85;;;;;;;28.98;29.89;100615.44;4894794;28;97366;-85
2022/07/24 10:27:36;;;;;;;8.32;7.82;;;;;;;29.07;29.89;100606.38;4907712;28;97473;-85
2022/07/24 10:30:06;;;;;;;8.25;7.65;;;;;;;28.79;29.87;100604.91;4875923;28;101815;-85
2022/07/24 10:32:33;;;;;;;7.97;7.45;;;;;;;28.16;29.62;100606.13;4893699;28;96943;-83
2022/07/24 10:35:14;;;;;;;7.88;6.88;;;;;;;27.93;29.91;100609.34;4906890;28;97531;-87
2022/07/24 10:37:45;;;;;;;7.90;7.30;;;;;;;28.01;30.06;100608.53;4893110;28;101458;-86
2022/07/24 10:40:41;;;;;;;7.13;6.70;;;;;;;28.24;29.70;100600.75;4914303;28;98087;-85
2022/07/24 10:43:10;;;;;;;7.00;6.60;;;;;;;27.93;30.50;100587.75;4911699;28;97382;-85
2022/07/24 10:45:44;;;;;;;7.20;6.60;;;;;;;27.70;30.45;100605.44;4913311;28;96937;-86
2022/07/24 10:48:22;;;;;;;6.88;6.47;;;;;;;27.63;30.40;100607.88;4911927;28;98640;-88
2022/07/24 10:50:56;;;;;;;7.28;6.88;;;;;;;27.48;30.20;100601.34;4914066;28;98071;-89
2022/07/24 10:53:23;;;;;;;7.72;7.13;;;;;;;27.48;29.98;100590.56;4920116;28;97004;-87
2022/07/24 10:55:49;;;;;;;7.03;6.43;;;;;;;27.49;30.36;100603.91;4897398;28;97159;-89
2022/07/24 10:58:15;;;;;;;7.03;6.40;;;;;;;27.40;30.40;100591.38;4897695;28;102244;-88
2022/07/24 11:00:49;;;;;;;6.93;6.32;;;;;;;27.61;30.28;100601.81;4907729;28;99449;-87
2022/07/24 11:03:18;;;;;;;6.90;6.50;;;;;;;27.51;29.93;100592.97;4893841;28;97027;-86
2022/07/24 11:06:01;;;;;;;7.50;7.00;;;;;;;27.28;29.73;100589.88;4907295;28;97256;-92
2022/07/24 11:08:32;;;;;;;7.07;6.60;;;;;;;27.27;29.80;100566.66;4901156;28;101419;-91